createdAt,value
2018-10-11T00:01:40.655Z,16.20
2018-10-11T00:04:08.931Z,16.20
2018-10-11T00:06:37.356Z,16.20
2018-10-11T00:09:07.780Z,16.20
2018-10-11T00:11:36.039Z,16.10
2018-10-11T00:14:04.296Z,16.20
2018-10-11T00:16:32.576Z,16.10
2018-10-11T00:19:00.860Z,16.10
2018-10-11T00:21:29.136Z,16.10
2018-10-11T00:23:57.423Z,16.10
2018-10-11T00:26:25.708Z,16.10
2018-10-11T00:28:53.972Z,16.00
2018-10-11T00:31:22.263Z,16.00
2018-10-11T00:33:50.548Z,16.00
2018-10-11T00:36:18.866Z,16.00
2018-10-11T00:38:47.164Z,15.90
2018-10-11T00:41:15.427Z,15.90
2018-10-11T00:43:43.686Z,15.90
2018-10-11T00:46:11.972Z,15.90
2018-10-11T00:48:40.283Z,15.90
2018-10-11T00:51:08.571Z,15.90
2018-10-11T00:53:36.876Z,15.90
2018-10-11T00:56:05.177Z,15.90
2018-10-11T00:58:33.467Z,15.80
2018-10-11T01:01:01.762Z,15.80
2018-10-11T01:03:30.035Z,15.70
2018-10-11T01:05:58.325Z,15.70
2018-10-11T01:08:26.624Z,15.70
2018-10-11T01:10:54.908Z,15.70
2018-10-11T01:13:23.222Z,15.60
2018-10-11T01:15:51.483Z,15.60
2018-10-11T01:18:19.913Z,15.60
2018-10-11T01:20:48.184Z,15.50
2018-10-11T01:23:16.481Z,15.50
2018-10-11T01:25:44.769Z,15.50
2018-10-11T01:28:13.056Z,15.40
2018-10-11T01:30:45.565Z,15.40
2018-10-11T01:33:13.854Z,15.40
2018-10-11T01:35:42.168Z,15.40
2018-10-11T01:38:10.911Z,15.40
2018-10-11T01:40:39.198Z,15.40
2018-10-11T01:43:07.483Z,15.40
2018-10-11T01:45:36.000Z,15.40
2018-10-11T01:48:04.296Z,15.40
2018-10-11T01:50:32.601Z,15.30
2018-10-11T01:53:00.872Z,15.30
2018-10-11T01:55:29.683Z,15.30
2018-10-11T01:57:59.103Z,15.30
2018-10-11T02:00:27.603Z,15.30
2018-10-11T02:02:57.708Z,15.30
2018-10-11T02:05:26.715Z,15.30
2018-10-11T02:07:55.891Z,15.30
2018-10-11T02:10:24.597Z,15.20
2018-10-11T02:12:52.888Z,15.20
2018-10-11T02:15:21.166Z,15.20
2018-10-11T02:17:49.443Z,15.10
2018-10-11T02:20:17.716Z,15.10
2018-10-11T02:22:46.007Z,15.10
2018-10-11T02:25:14.288Z,15.00
2018-10-11T02:27:42.824Z,15.00
2018-10-11T02:30:11.960Z,15.00
2018-10-11T02:32:40.226Z,15.00
2018-10-11T02:35:08.742Z,15.00
2018-10-11T02:37:37.032Z,14.90
2018-10-11T02:40:05.312Z,14.90
2018-10-11T02:42:33.580Z,14.90
2018-10-11T02:45:01.860Z,14.90
2018-10-11T02:47:30.143Z,14.90
2018-10-11T02:49:58.444Z,14.90
2018-10-11T02:52:26.807Z,14.90
2018-10-11T02:54:55.101Z,14.90
2018-10-11T02:57:34.808Z,14.90
2018-10-11T03:00:03.728Z,14.90
2018-10-11T03:02:32.792Z,14.80
2018-10-11T03:05:01.106Z,14.80
2018-10-11T03:07:29.681Z,14.80
2018-10-11T03:09:58.268Z,14.80
2018-10-11T03:12:26.570Z,14.80
2018-10-11T03:14:54.847Z,14.80
2018-10-11T03:17:23.136Z,14.70
2018-10-11T03:19:51.424Z,14.70
2018-10-11T03:22:19.713Z,14.70
2018-10-11T03:24:48.004Z,14.70
2018-10-11T03:27:16.302Z,14.70
2018-10-11T03:29:44.580Z,14.70
2018-10-11T03:32:12.998Z,14.60
2018-10-11T03:34:41.431Z,14.60
2018-10-11T03:37:09.820Z,14.60
2018-10-11T03:39:38.301Z,14.50
2018-10-11T03:42:06.894Z,14.50
2018-10-11T03:44:35.371Z,14.50
2018-10-11T03:47:03.786Z,14.50
2018-10-11T03:49:32.278Z,14.50
2018-10-11T03:52:01.545Z,14.50
2018-10-11T03:54:30.006Z,14.50
2018-10-11T03:56:58.501Z,14.50
2018-10-11T03:59:27.293Z,14.50
2018-10-11T04:01:56.189Z,14.50
2018-10-11T04:04:24.668Z,14.50
2018-10-11T04:06:53.172Z,14.40
2018-10-11T04:09:21.741Z,14.40
2018-10-11T04:11:50.268Z,14.40
2018-10-11T04:14:18.729Z,14.30
2018-10-11T04:16:47.216Z,14.30
2018-10-11T04:19:15.702Z,14.30
2018-10-11T04:21:44.212Z,14.30
2018-10-11T04:24:12.570Z,14.30
2018-10-11T04:26:40.957Z,14.30
2018-10-11T04:29:09.348Z,14.20
2018-10-11T04:31:37.830Z,14.20
2018-10-11T04:34:06.221Z,14.20
2018-10-11T04:36:34.684Z,14.20
2018-10-11T04:39:03.059Z,14.20
2018-10-11T04:41:31.363Z,14.20
2018-10-11T04:43:59.640Z,14.20
2018-10-11T04:46:27.912Z,14.10
2018-10-11T04:48:56.184Z,14.10
2018-10-11T04:51:24.427Z,14.10
2018-10-11T04:53:57.423Z,14.00
2018-10-11T04:56:27.326Z,14.00
2018-10-11T04:58:56.031Z,14.00
2018-10-11T05:01:24.311Z,14.00
2018-10-11T05:03:52.604Z,14.00
2018-10-11T05:06:20.906Z,14.00
2018-10-11T05:08:49.187Z,14.00
2018-10-11T05:11:17.459Z,14.00
2018-10-11T05:13:47.959Z,14.00
2018-10-11T05:16:16.852Z,14.00
2018-10-11T05:18:47.088Z,14.00
2018-10-11T05:21:15.366Z,14.00
2018-10-11T05:23:44.151Z,13.90
2018-10-11T05:26:12.509Z,13.90
2018-10-11T05:28:41.119Z,13.90
2018-10-11T05:31:09.503Z,13.90
2018-10-11T05:33:38.112Z,13.90
2018-10-11T05:36:06.391Z,13.90
2018-10-11T05:38:34.663Z,13.90
2018-10-11T05:41:02.949Z,13.80
2018-10-11T05:43:31.312Z,13.80
2018-10-11T05:46:01.449Z,13.80
2018-10-11T05:48:30.368Z,13.70
2018-10-11T05:51:00.214Z,13.70
2018-10-11T05:53:28.709Z,13.70
2018-10-11T05:55:57.340Z,13.70
2018-10-11T05:58:25.781Z,13.60
2018-10-11T06:00:54.060Z,13.60
2018-10-11T06:03:22.312Z,13.60
2018-10-11T06:05:50.609Z,13.60
2018-10-11T06:08:18.906Z,13.60
2018-10-11T06:10:47.188Z,13.60
2018-10-11T06:13:15.504Z,13.60
2018-10-11T06:15:43.825Z,13.60
2018-10-11T06:18:12.898Z,13.60
2018-10-11T06:20:41.458Z,13.50
2018-10-11T06:23:09.429Z,13.50
2018-10-11T06:25:37.724Z,13.50
2018-10-11T06:28:06.476Z,13.50
2018-10-11T06:30:35.581Z,13.50
2018-10-11T06:33:03.872Z,13.50
2018-10-11T06:35:32.474Z,13.50
2018-10-11T06:38:00.963Z,13.50
2018-10-11T06:40:29.239Z,13.60
2018-10-11T06:42:57.561Z,13.50
2018-10-11T06:45:25.874Z,13.60
2018-10-11T06:47:56.232Z,13.60
2018-10-11T06:50:24.516Z,13.70
2018-10-11T06:52:52.811Z,13.70
2018-10-11T06:55:21.075Z,13.70
2018-10-11T06:57:49.364Z,13.80
2018-10-11T07:00:17.639Z,13.80
2018-10-11T07:02:45.918Z,13.90
2018-10-11T07:05:14.183Z,13.90
2018-10-11T07:07:42.580Z,14.00
2018-10-11T07:10:10.894Z,14.00
2018-10-11T07:12:39.180Z,14.10
2018-10-11T07:15:07.451Z,14.20
2018-10-11T07:17:35.739Z,14.20
2018-10-11T07:20:04.038Z,14.30
2018-10-11T07:22:32.323Z,14.40
2018-10-11T07:25:00.620Z,14.50
2018-10-11T07:27:29.043Z,14.50
2018-10-11T07:29:57.325Z,14.70
2018-10-11T07:32:25.652Z,14.70
2018-10-11T07:34:54.011Z,14.90
2018-10-11T07:37:22.229Z,15.00
2018-10-11T07:39:50.504Z,15.10
2018-10-11T07:42:18.809Z,15.20
2018-10-11T07:44:47.072Z,15.30
2018-10-11T07:47:15.438Z,15.40
2018-10-11T07:49:43.710Z,15.50
2018-10-11T07:52:12.003Z,15.60
2018-10-11T07:54:40.290Z,15.80
2018-10-11T07:57:08.552Z,16.00
2018-10-11T07:59:36.834Z,16.10
2018-10-11T08:02:05.129Z,16.00
2018-10-11T08:04:33.457Z,16.20
2018-10-11T08:07:01.834Z,16.50
2018-10-11T08:09:30.040Z,16.60
2018-10-11T08:11:58.578Z,16.80
2018-10-11T08:14:26.664Z,16.80
2018-10-11T08:16:55.149Z,17.00
2018-10-11T08:19:23.459Z,17.00
2018-10-11T08:21:51.560Z,17.20
2018-10-11T08:24:19.936Z,17.20
2018-10-11T08:26:48.209Z,17.40
2018-10-11T08:29:16.508Z,17.70
2018-10-11T08:31:44.863Z,18.20
2018-10-11T08:34:13.063Z,18.70
2018-10-11T08:36:41.331Z,19.50
2018-10-11T08:39:11.263Z,20.00
2018-10-11T08:41:39.824Z,20.50
2018-10-11T08:44:08.743Z,20.90
2018-10-11T08:46:37.040Z,21.60
2018-10-11T08:49:05.393Z,21.20
2018-10-11T08:51:33.936Z,21.50
2018-10-11T08:54:07.608Z,22.00
2018-10-11T08:56:35.985Z,22.00
2018-10-11T08:59:04.483Z,22.00
2018-10-11T09:01:32.764Z,23.00
2018-10-11T09:04:01.182Z,23.80
2018-10-11T09:06:29.319Z,24.30
2018-10-11T09:08:57.592Z,23.80
2018-10-11T09:11:25.960Z,23.70
2018-10-11T09:13:54.196Z,24.60
2018-10-11T09:16:22.468Z,24.90
2018-10-11T09:18:50.749Z,25.90
2018-10-11T09:21:19.027Z,25.70
2018-10-11T09:23:47.317Z,25.50
2018-10-11T09:26:15.701Z,24.50
2018-10-11T09:28:44.096Z,24.40
2018-10-11T09:31:12.392Z,24.80
2018-10-11T09:33:40.684Z,24.40
2018-10-11T09:36:09.005Z,24.50
2018-10-11T09:38:37.309Z,24.20
2018-10-11T09:41:05.824Z,24.90
2018-10-11T09:43:34.127Z,24.20
2018-10-11T09:46:02.406Z,24.70
2018-10-11T09:48:30.692Z,25.00
2018-10-11T09:50:58.996Z,24.80
2018-10-11T09:53:27.269Z,24.40
2018-10-11T09:55:55.571Z,24.00
2018-10-11T09:58:23.839Z,24.00
2018-10-11T10:00:57.525Z,24.20
2018-10-11T10:03:25.787Z,24.10
2018-10-11T10:05:54.100Z,24.70
2018-10-11T10:08:22.396Z,24.30
2018-10-11T10:10:50.692Z,24.50
2018-10-11T10:13:18.972Z,25.00
2018-10-11T10:15:47.253Z,25.30
2018-10-11T10:18:15.549Z,25.00
2018-10-11T10:20:43.839Z,25.20
2018-10-11T10:23:12.138Z,25.30
2018-10-11T10:25:40.428Z,24.90
2018-10-11T10:28:08.969Z,25.40
2018-10-11T10:30:42.609Z,26.60
2018-10-11T10:33:10.900Z,26.90
2018-10-11T10:35:39.188Z,26.20
2018-10-11T10:38:07.477Z,26.40
2018-10-11T10:40:35.781Z,26.70
2018-10-11T10:43:04.064Z,26.70
2018-10-11T10:45:32.381Z,26.40
2018-10-11T10:48:00.672Z,25.90
2018-10-11T10:50:28.984Z,25.70
2018-10-11T10:52:57.294Z,25.50
2018-10-11T10:55:25.603Z,24.60
2018-10-11T10:57:53.888Z,24.50
2018-10-11T11:00:22.367Z,24.50
2018-10-11T11:02:50.674Z,24.50
2018-10-11T11:05:19.096Z,24.30
2018-10-11T11:07:47.385Z,24.20
2018-10-11T11:10:15.655Z,23.90
2018-10-11T11:12:43.928Z,24.40
2018-10-11T11:15:12.210Z,24.60
2018-10-11T11:17:40.487Z,25.00
2018-10-11T11:20:08.767Z,24.20
2018-10-11T11:22:37.178Z,24.00
2018-10-11T11:25:05.701Z,24.00
2018-10-11T11:27:33.997Z,24.00
2018-10-11T11:30:02.283Z,23.80
2018-10-11T11:32:30.585Z,23.50
2018-10-11T11:34:58.892Z,23.80
2018-10-11T11:37:27.171Z,23.80
2018-10-11T11:39:55.550Z,23.80
2018-10-11T11:42:23.861Z,23.80
2018-10-11T11:44:52.140Z,23.90
2018-10-11T11:47:20.438Z,23.40
2018-10-11T11:49:48.711Z,23.20
2018-10-11T11:52:16.985Z,23.10
2018-10-11T11:54:45.282Z,23.00
2018-10-11T11:57:13.559Z,23.10
2018-10-11T11:59:41.835Z,23.20
2018-10-11T12:02:10.177Z,23.20
2018-10-11T12:04:38.430Z,23.30
2018-10-11T12:07:06.884Z,23.50
2018-10-11T12:09:35.199Z,23.40
2018-10-11T12:12:03.484Z,23.30
2018-10-11T12:14:31.755Z,23.30
2018-10-11T12:17:00.042Z,23.20
2018-10-11T12:19:28.317Z,23.20
2018-10-11T12:21:56.662Z,23.10
2018-10-11T12:24:24.908Z,23.10
2018-10-11T12:26:53.179Z,22.90
2018-10-11T12:29:21.474Z,23.10
2018-10-11T12:31:49.732Z,23.20
2018-10-11T12:34:18.001Z,23.10
2018-10-11T12:36:46.277Z,23.20
2018-10-11T12:39:14.561Z,23.30
2018-10-11T12:41:42.852Z,23.40
2018-10-11T12:44:11.128Z,23.30
2018-10-11T12:46:40.634Z,23.30
2018-10-11T12:49:07.768Z,23.20
2018-10-11T12:51:36.036Z,23.10
2018-10-11T12:54:04.324Z,23.20
2018-10-11T12:56:32.720Z,23.10
2018-10-11T12:59:00.948Z,23.00
2018-10-11T13:01:29.227Z,23.00
2018-10-11T13:03:57.537Z,22.90
2018-10-11T13:06:25.812Z,22.90
2018-10-11T13:09:00.827Z,22.90
2018-10-11T13:11:29.119Z,22.80
2018-10-11T13:13:57.414Z,22.70
2018-10-11T13:16:25.738Z,22.70
2018-10-11T13:18:54.014Z,22.60
2018-10-11T13:21:22.344Z,22.60
2018-10-11T13:23:50.662Z,22.60
2018-10-11T13:26:18.940Z,22.60
2018-10-11T13:28:47.266Z,22.60
2018-10-11T13:31:15.539Z,22.60
2018-10-11T13:33:43.828Z,22.60
2018-10-11T13:36:12.097Z,22.60
2018-10-11T13:38:40.364Z,22.60
2018-10-11T13:41:08.705Z,22.60
2018-10-11T13:43:36.961Z,22.60
2018-10-11T13:46:05.270Z,22.60
2018-10-11T13:48:33.547Z,22.60
2018-10-11T13:51:01.823Z,22.60
2018-10-11T13:53:30.096Z,22.60
2018-10-11T13:55:59.084Z,22.60
2018-10-11T13:58:26.720Z,22.60
2018-10-11T14:00:55.007Z,22.60
2018-10-11T14:03:23.301Z,22.50
2018-10-11T14:05:51.583Z,22.50
2018-10-11T14:08:19.863Z,22.40
2018-10-11T14:10:48.196Z,22.40
2018-10-11T14:13:19.831Z,22.40
2018-10-11T14:15:44.755Z,22.40
2018-10-11T14:18:13.763Z,22.40
2018-10-11T14:20:42.045Z,22.40
2018-10-11T14:23:10.392Z,22.30
2018-10-11T14:25:38.634Z,22.40
2018-10-11T14:28:06.912Z,22.40
2018-10-11T14:30:35.187Z,22.30
2018-10-11T14:33:03.468Z,22.30
2018-10-11T14:35:31.744Z,22.30
2018-10-11T14:38:00.072Z,22.30
2018-10-11T14:40:28.366Z,22.30
2018-10-11T14:42:56.640Z,22.30
2018-10-11T14:45:24.915Z,22.30
2018-10-11T14:47:53.204Z,22.30
2018-10-11T14:50:21.488Z,22.30
2018-10-11T14:52:49.751Z,22.30
2018-10-11T14:55:18.043Z,22.30
2018-10-11T14:57:46.299Z,22.30
2018-10-11T15:00:15.078Z,22.30
2018-10-11T15:02:42.898Z,22.30
2018-10-11T15:05:11.193Z,22.30
2018-10-11T15:07:39.488Z,22.20
2018-10-11T15:10:07.779Z,22.20
2018-10-11T15:12:36.063Z,22.20
2018-10-11T15:15:04.527Z,22.20
2018-10-11T15:17:32.817Z,22.20
2018-10-11T15:20:01.089Z,22.20
2018-10-11T15:22:29.382Z,22.20
2018-10-11T15:24:57.671Z,22.10
2018-10-11T15:27:25.968Z,22.10
2018-10-11T15:29:54.451Z,22.10
2018-10-11T15:32:22.540Z,22.10
2018-10-11T15:34:50.849Z,22.10
2018-10-11T15:37:19.153Z,22.00
2018-10-11T15:39:47.444Z,22.00
2018-10-11T15:42:15.734Z,22.00
2018-10-11T15:44:43.992Z,22.00
2018-10-11T15:47:12.311Z,21.90
2018-10-11T15:49:40.605Z,21.90
2018-10-11T15:52:08.971Z,21.90
2018-10-11T15:54:37.226Z,21.90
2018-10-11T15:57:05.528Z,21.80
2018-10-11T15:59:33.833Z,21.80
2018-10-11T16:02:02.287Z,21.70
2018-10-11T16:04:30.573Z,21.70
2018-10-11T16:06:58.839Z,21.70
2018-10-11T16:09:27.174Z,21.60
2018-10-11T16:11:55.442Z,21.60
2018-10-11T16:14:23.711Z,21.60
2018-10-11T16:16:51.995Z,21.60
2018-10-11T16:19:20.272Z,21.50
2018-10-11T16:21:48.548Z,21.40
2018-10-11T16:24:16.848Z,21.40
2018-10-11T16:26:45.153Z,21.30
2018-10-11T16:29:13.459Z,21.30
2018-10-11T16:31:41.728Z,21.20
2018-10-11T16:34:10.015Z,21.20
2018-10-11T16:36:38.308Z,21.10
2018-10-11T16:39:08.154Z,21.10
2018-10-11T16:41:36.379Z,21.10
2018-10-11T16:44:04.659Z,21.00
2018-10-11T16:46:33.231Z,20.90
2018-10-11T16:49:01.539Z,20.90
2018-10-11T16:51:30.115Z,20.80
2018-10-11T16:53:58.666Z,20.80
2018-10-11T16:56:26.939Z,20.70
2018-10-11T16:58:55.332Z,20.60
2018-10-11T17:01:23.607Z,20.60
2018-10-11T17:03:51.896Z,20.50
2018-10-11T17:06:20.179Z,20.60
2018-10-11T17:08:48.451Z,20.50
2018-10-11T17:11:16.735Z,20.40
2018-10-11T17:13:45.014Z,20.40
2018-10-11T17:16:13.329Z,20.30
2018-10-11T17:18:41.605Z,20.30
2018-10-11T17:21:10.018Z,20.30
2018-10-11T17:23:38.299Z,20.20
2018-10-11T17:26:06.600Z,20.10
2018-10-11T17:28:34.892Z,20.10
2018-10-11T17:31:03.192Z,20.00
2018-10-11T17:33:31.480Z,20.00
2018-10-11T17:35:59.743Z,19.90
2018-10-11T17:38:28.052Z,19.90
2018-10-11T17:40:56.335Z,19.80
2018-10-11T17:43:24.620Z,19.80
2018-10-11T17:45:52.896Z,19.70
2018-10-11T17:48:21.147Z,19.70
2018-10-11T17:50:49.436Z,19.70
2018-10-11T17:53:17.748Z,19.60
2018-10-11T17:55:46.030Z,19.60
2018-10-11T17:58:14.329Z,19.60
2018-10-11T18:00:42.747Z,19.50
2018-10-11T18:03:11.105Z,19.40
2018-10-11T18:05:39.335Z,19.40
2018-10-11T18:08:07.624Z,19.30
2018-10-11T18:10:35.914Z,19.20
2018-10-11T18:13:04.197Z,19.20
2018-10-11T18:15:32.465Z,19.20
2018-10-11T18:18:00.763Z,19.10
2018-10-11T18:20:29.056Z,19.10
2018-10-11T18:22:57.336Z,19.10
2018-10-11T18:25:25.632Z,19.00
2018-10-11T18:27:53.933Z,19.00
2018-10-11T18:30:22.221Z,19.00
2018-10-11T18:32:50.517Z,18.90
2018-10-11T18:35:18.816Z,18.90
2018-10-11T18:37:47.116Z,18.90
2018-10-11T18:40:15.494Z,18.90
2018-10-11T18:42:43.761Z,18.80
2018-10-11T18:45:12.071Z,18.80
2018-10-11T18:47:40.356Z,18.80
2018-10-11T18:50:08.681Z,18.80
2018-10-11T18:52:36.971Z,18.70
2018-10-11T18:55:05.260Z,18.70
2018-10-11T18:57:33.608Z,18.60
2018-10-11T19:00:01.904Z,18.60
2018-10-11T19:02:30.176Z,18.60
2018-10-11T19:04:58.455Z,18.50
2018-10-11T19:07:26.755Z,18.50
2018-10-11T19:09:55.105Z,18.50
2018-10-11T19:12:23.392Z,18.40
2018-10-11T19:14:51.740Z,18.40
2018-10-11T19:17:20.023Z,18.40
2018-10-11T19:19:48.323Z,18.30
2018-10-11T19:22:16.622Z,18.30
2018-10-11T19:24:44.884Z,18.30
2018-10-11T19:27:13.179Z,18.30
2018-10-11T19:29:41.460Z,18.30
2018-10-11T19:32:09.736Z,18.20
2018-10-11T19:34:38.016Z,18.20
2018-10-11T19:37:06.312Z,18.20
2018-10-11T19:39:34.649Z,18.20
2018-10-11T19:42:03.106Z,18.20
2018-10-11T19:44:31.398Z,18.20
2018-10-11T19:46:59.667Z,18.10
2018-10-11T19:49:27.931Z,18.10
2018-10-11T19:51:56.205Z,18.10
2018-10-11T19:54:24.588Z,18.10
2018-10-11T19:56:53.223Z,18.10
2018-10-11T19:59:21.496Z,18.10
2018-10-11T20:01:49.776Z,18.10
2018-10-11T20:04:18.164Z,18.10
2018-10-11T20:06:46.445Z,18.00
2018-10-11T20:09:14.722Z,18.00
2018-10-11T20:11:42.997Z,18.00
2018-10-11T20:14:11.284Z,18.00
2018-10-11T20:16:39.607Z,18.00
2018-10-11T20:19:07.899Z,18.00
2018-10-11T20:21:36.167Z,17.90
2018-10-11T20:24:04.448Z,17.90
2018-10-11T20:26:32.708Z,17.80
2018-10-11T20:29:01.008Z,17.80
2018-10-11T20:34:06.128Z,17.80
2018-10-11T20:36:34.421Z,17.70
2018-10-11T20:39:02.704Z,17.70
2018-10-11T20:41:30.989Z,17.60
2018-10-11T20:43:59.326Z,17.60
2018-10-11T20:46:27.632Z,17.50
2018-10-11T20:48:55.909Z,17.60
2018-10-11T20:53:58.884Z,17.50
2018-10-11T20:56:27.203Z,17.50
2018-10-11T20:58:55.570Z,17.50
2018-10-11T21:01:23.874Z,17.40
2018-10-11T21:03:52.167Z,17.40
2018-10-11T21:06:20.435Z,17.40
2018-10-11T21:08:48.708Z,17.40
2018-10-11T21:11:16.975Z,17.30
2018-10-11T21:13:45.256Z,17.30
2018-10-11T21:16:13.523Z,17.30
2018-10-11T21:18:41.812Z,17.30
2018-10-11T21:21:10.085Z,17.20
2018-10-11T21:23:38.374Z,17.20
2018-10-11T21:26:06.671Z,17.20
2018-10-11T21:28:35.178Z,17.20
2018-10-11T21:31:03.475Z,17.10
2018-10-11T21:33:32.252Z,17.10
2018-10-11T21:36:00.541Z,17.10
2018-10-11T21:38:28.824Z,17.10
2018-10-11T21:40:57.196Z,17.00
2018-10-11T21:43:25.491Z,17.00
2018-10-11T21:45:53.776Z,17.10
2018-10-11T21:48:22.063Z,17.10
2018-10-11T21:50:50.327Z,17.00
2018-10-11T21:53:18.668Z,17.00
2018-10-11T21:55:46.947Z,17.00
2018-10-11T21:58:15.373Z,17.00
2018-10-11T22:00:48.974Z,17.00
2018-10-11T22:03:17.260Z,17.00
2018-10-11T22:05:45.540Z,16.90
2018-10-11T22:08:13.819Z,16.90
2018-10-11T22:10:42.100Z,16.80
2018-10-11T22:13:10.401Z,16.80
2018-10-11T22:15:38.671Z,16.80
2018-10-11T22:18:06.950Z,16.80
2018-10-11T22:20:35.218Z,16.70
2018-10-11T22:23:03.507Z,16.70
2018-10-11T22:25:31.804Z,16.70
2018-10-11T22:28:00.081Z,16.60
2018-10-11T22:30:28.368Z,16.60
2018-10-11T22:32:56.635Z,16.60
2018-10-11T22:35:24.940Z,16.50
2018-10-11T22:37:58.803Z,16.50
2018-10-11T22:40:27.951Z,16.40
2018-10-11T22:42:57.014Z,16.40
2018-10-11T22:45:25.904Z,16.30
2018-10-11T22:47:54.991Z,16.30
2018-10-11T22:50:23.912Z,16.30
2018-10-11T22:52:52.184Z,16.30
2018-10-11T22:55:20.448Z,16.30
2018-10-11T22:57:48.756Z,16.20
2018-10-11T23:00:17.034Z,16.20
2018-10-11T23:02:45.308Z,16.20
2018-10-11T23:05:13.583Z,16.20
2018-10-11T23:07:41.868Z,16.20
2018-10-11T23:10:10.143Z,16.20
2018-10-11T23:12:38.413Z,16.10
2018-10-11T23:15:06.705Z,16.10
2018-10-11T23:17:35.049Z,16.10
2018-10-11T23:20:03.311Z,16.00
2018-10-11T23:22:31.579Z,16.00
2018-10-11T23:24:59.876Z,16.00
2018-10-11T23:27:28.147Z,16.00
2018-10-11T23:29:56.429Z,16.00
2018-10-11T23:32:24.892Z,15.90
2018-10-11T23:34:53.268Z,15.90
2018-10-11T23:37:21.549Z,15.90
2018-10-11T23:39:49.833Z,15.90
2018-10-11T23:42:18.132Z,15.90
2018-10-11T23:44:46.423Z,15.80
2018-10-11T23:47:14.708Z,15.80
2018-10-11T23:49:43.010Z,15.80
2018-10-11T23:52:11.282Z,15.70
2018-10-11T23:54:39.556Z,15.70
2018-10-11T23:57:07.871Z,15.70
2018-10-11T23:59:36.157Z,15.60
